createdAt,value
2018-11-05T00:00:17.792Z,30.53
2018-11-05T00:02:46.820Z,31.70
2018-11-05T00:05:15.690Z,29.73
2018-11-05T00:07:44.358Z,30.83
2018-11-05T00:10:13.041Z,31.87
2018-11-05T00:12:41.690Z,29.13
2018-11-05T00:15:10.446Z,27.77
2018-11-05T00:17:39.720Z,30.83
2018-11-05T00:20:09.619Z,29.40
2018-11-05T00:22:38.307Z,27.50
2018-11-05T00:25:08.514Z,32.10
2018-11-05T00:27:37.217Z,30.50
2018-11-05T00:30:06.389Z,31.00
2018-11-05T00:32:35.259Z,31.43
2018-11-05T00:35:03.907Z,27.87
2018-11-05T00:37:32.567Z,29.13
2018-11-05T00:40:01.148Z,30.93
2018-11-05T00:42:29.993Z,29.07
2018-11-05T00:44:58.705Z,29.03
2018-11-05T00:47:27.315Z,31.90
2018-11-05T00:49:55.974Z,29.00
2018-11-05T00:52:24.624Z,28.23
2018-11-05T00:54:53.327Z,33.17
2018-11-05T00:57:21.975Z,29.13
2018-11-05T00:59:50.659Z,30.53
2018-11-05T01:02:19.324Z,30.17
2018-11-05T01:04:48.019Z,29.17
2018-11-05T01:07:16.737Z,29.57
2018-11-05T01:09:45.391Z,30.00
2018-11-05T01:12:14.135Z,32.30
2018-11-05T01:14:42.719Z,34.80
2018-11-05T01:17:11.465Z,29.13
2018-11-05T01:19:40.062Z,30.17
2018-11-05T01:22:08.700Z,31.13
2018-11-05T01:24:37.354Z,32.10
2018-11-05T01:27:05.962Z,34.03
2018-11-05T01:29:34.653Z,33.20
2018-11-05T01:32:03.282Z,33.53
2018-11-05T01:34:31.967Z,32.60
2018-11-05T01:37:00.564Z,33.43
2018-11-05T01:39:29.222Z,32.87
2018-11-05T01:41:57.880Z,31.87
2018-11-05T01:44:26.520Z,31.07
2018-11-05T01:46:55.160Z,33.70
2018-11-05T01:49:23.858Z,34.53
2018-11-05T01:51:52.556Z,32.80
2018-11-05T01:54:21.142Z,34.17
2018-11-05T01:56:49.820Z,32.63
2018-11-05T01:59:18.503Z,32.80
2018-11-05T02:01:47.180Z,34.00
2018-11-05T02:04:15.822Z,33.67
2018-11-05T02:06:44.457Z,35.07
2018-11-05T02:09:13.187Z,34.07
2018-11-05T02:11:41.852Z,33.63
2018-11-05T02:14:11.057Z,32.60
2018-11-05T02:16:39.791Z,32.77
2018-11-05T02:19:08.389Z,34.67
2018-11-05T02:21:37.031Z,38.43
2018-11-05T02:24:05.783Z,32.87
2018-11-05T02:26:34.404Z,35.20
2018-11-05T02:29:03.130Z,35.00
2018-11-05T02:31:31.886Z,35.90
2018-11-05T02:34:00.529Z,32.00
2018-11-05T02:36:29.566Z,31.73
2018-11-05T02:38:58.280Z,33.73
2018-11-05T02:41:26.943Z,35.07
2018-11-05T02:43:55.669Z,35.03
2018-11-05T02:46:24.291Z,34.63
2018-11-05T02:48:52.936Z,31.17
2018-11-05T02:51:21.681Z,34.67
2018-11-05T02:53:50.403Z,32.23
2018-11-05T02:56:19.097Z,34.87
2018-11-05T02:58:47.716Z,31.60
2018-11-05T03:01:16.397Z,29.07
2018-11-05T03:03:45.111Z,31.60
2018-11-05T03:06:13.773Z,31.07
2018-11-05T03:08:42.399Z,29.43
2018-11-05T03:11:11.099Z,30.63
2018-11-05T03:13:39.796Z,29.40
2018-11-05T03:16:08.409Z,29.30
2018-11-05T03:18:37.012Z,29.37
2018-11-05T03:21:05.700Z,30.47
2018-11-05T03:23:34.380Z,28.80
2018-11-05T03:26:03.353Z,31.90
2018-11-05T03:28:31.983Z,30.87
2018-11-05T03:31:00.605Z,30.07
2018-11-05T03:33:29.273Z,32.80
2018-11-05T03:35:57.954Z,33.13
2018-11-05T03:38:26.557Z,31.47
2018-11-05T03:40:55.206Z,31.20
2018-11-05T03:43:23.935Z,30.97
2018-11-05T03:45:52.682Z,30.20
2018-11-05T03:48:21.299Z,32.13
2018-11-05T03:50:49.951Z,30.60
2018-11-05T03:53:18.577Z,33.50
2018-11-05T03:55:47.395Z,30.53
2018-11-05T03:58:15.944Z,31.83
2018-11-05T04:00:44.658Z,29.87
2018-11-05T04:03:13.290Z,28.93
2018-11-05T04:05:41.881Z,31.87
2018-11-05T04:08:10.474Z,34.90
2018-11-05T04:10:39.119Z,31.67
2018-11-05T04:13:07.784Z,31.43
2018-11-05T04:15:36.517Z,32.37
2018-11-05T04:18:05.087Z,30.37
2018-11-05T04:20:33.741Z,30.80
2018-11-05T04:23:02.379Z,28.70
2018-11-05T04:25:31.027Z,31.67
2018-11-05T04:27:59.756Z,30.97
2018-11-05T04:30:28.333Z,31.83
2018-11-05T04:32:57.014Z,27.83
2018-11-05T04:35:25.652Z,31.43
2018-11-05T04:37:54.532Z,30.77
2018-11-05T04:40:23.205Z,29.60
2018-11-05T04:42:51.897Z,29.03
2018-11-05T04:45:20.578Z,31.17
2018-11-05T04:47:49.185Z,30.83
2018-11-05T04:50:17.851Z,29.60
2018-11-05T04:52:46.555Z,33.13
2018-11-05T04:55:15.232Z,31.87
2018-11-05T04:57:43.852Z,31.50
2018-11-05T05:00:15.081Z,31.30
2018-11-05T05:02:44.028Z,30.03
2018-11-05T05:05:13.822Z,31.17
2018-11-05T05:07:42.565Z,30.80
2018-11-05T05:10:11.484Z,29.20
2018-11-05T05:12:41.350Z,28.53
2018-11-05T05:15:10.535Z,28.13
2018-11-05T05:17:39.593Z,30.37
2018-11-05T05:20:10.300Z,36.53
2018-11-05T05:22:39.090Z,30.30
2018-11-05T05:25:07.595Z,30.13
2018-11-05T05:27:36.254Z,30.83
2018-11-05T05:30:07.532Z,33.53
2018-11-05T05:32:36.213Z,29.47
2018-11-05T05:35:05.344Z,32.43
2018-11-05T05:37:34.029Z,30.77
2018-11-05T05:40:02.679Z,30.70
2018-11-05T05:42:31.271Z,30.17
2018-11-05T05:44:59.891Z,31.33
2018-11-05T05:47:28.569Z,30.47
2018-11-05T05:49:57.172Z,29.50
2018-11-05T05:52:25.885Z,31.73
2018-11-05T05:54:54.489Z,30.00
2018-11-05T05:57:23.167Z,32.23
2018-11-05T05:59:51.981Z,32.07
2018-11-05T06:02:20.624Z,34.90
2018-11-05T06:04:49.646Z,33.07
2018-11-05T06:07:18.232Z,33.87
2018-11-05T06:09:46.893Z,33.60
2018-11-05T06:12:15.520Z,31.40
2018-11-05T06:14:44.253Z,33.63
2018-11-05T06:17:12.908Z,35.00
2018-11-05T06:19:41.658Z,34.13
2018-11-05T06:22:10.331Z,34.03
2018-11-05T06:24:39.221Z,32.17
2018-11-05T06:27:07.883Z,32.37
2018-11-05T06:29:36.563Z,31.87
2018-11-05T06:32:05.446Z,32.27
2018-11-05T06:34:34.076Z,33.63
2018-11-05T06:37:02.747Z,35.93
2018-11-05T06:39:31.363Z,32.37
2018-11-05T06:42:00.066Z,36.03
2018-11-05T06:44:28.656Z,35.10
2018-11-05T06:46:57.427Z,34.30
2018-11-05T06:49:26.086Z,36.20
2018-11-05T06:51:54.644Z,36.97
2018-11-05T06:54:23.312Z,36.73
2018-11-05T06:56:52.026Z,38.60
2018-11-05T06:59:20.640Z,36.77
2018-11-05T07:01:49.336Z,34.10
2018-11-05T07:04:18.060Z,39.07
2018-11-05T07:06:46.748Z,35.70
2018-11-05T07:09:15.630Z,39.87
2018-11-05T07:11:44.271Z,36.27
2018-11-05T07:14:12.784Z,36.67
2018-11-05T07:16:41.521Z,40.07
2018-11-05T07:19:10.411Z,39.23
2018-11-05T07:21:38.707Z,37.17
2018-11-05T07:24:07.348Z,36.07
2018-11-05T07:26:36.009Z,39.23
2018-11-05T07:29:05.386Z,38.23
2018-11-05T07:31:34.001Z,39.77
2018-11-05T07:34:02.808Z,41.17
2018-11-05T07:36:31.329Z,39.73
2018-11-05T07:38:59.888Z,38.47
2018-11-05T07:41:28.504Z,39.50
2018-11-05T07:43:57.194Z,35.37
2018-11-05T07:46:25.772Z,37.80
2018-11-05T07:48:54.329Z,36.90
2018-11-05T07:51:22.983Z,35.63
2018-11-05T07:53:51.597Z,38.27
2018-11-05T07:56:20.364Z,34.87
2018-11-05T07:58:48.950Z,39.07
2018-11-05T08:01:17.542Z,36.77
2018-11-05T08:03:46.182Z,35.83
2018-11-05T08:06:14.842Z,36.17
2018-11-05T08:08:43.443Z,35.33
2018-11-05T08:11:12.107Z,33.57
2018-11-05T08:13:40.907Z,35.80
2018-11-05T08:16:09.538Z,35.43
2018-11-05T08:18:38.203Z,32.77
2018-11-05T08:21:06.980Z,34.77
2018-11-05T08:23:35.569Z,30.60
2018-11-05T08:26:04.276Z,32.87
2018-11-05T08:28:32.958Z,35.07
2018-11-05T08:31:01.646Z,31.87
2018-11-05T08:33:30.392Z,32.57
2018-11-05T08:35:59.127Z,37.30
2018-11-05T08:38:27.808Z,32.80
2018-11-05T08:40:56.694Z,32.57
2018-11-05T08:43:25.526Z,33.63
2018-11-05T08:45:54.229Z,33.77
2018-11-05T08:48:23.581Z,33.13
2018-11-05T08:50:52.335Z,32.23
2018-11-05T08:53:21.023Z,31.37
2018-11-05T08:55:49.771Z,35.93
2018-11-05T08:58:18.510Z,31.13
2018-11-05T09:00:48.713Z,30.87
2018-11-05T09:03:17.375Z,34.60
2018-11-05T09:05:46.189Z,31.77
2018-11-05T09:08:14.897Z,33.73
2018-11-05T09:10:43.920Z,34.67
2018-11-05T09:13:12.394Z,31.47
2018-11-05T09:15:41.560Z,32.50
2018-11-05T09:18:10.344Z,30.80
2018-11-05T09:20:39.159Z,31.33
2018-11-05T09:23:07.971Z,30.83
2018-11-05T09:25:37.348Z,30.50
2018-11-05T09:28:06.899Z,30.73
2018-11-05T09:30:35.957Z,28.70
2018-11-05T09:33:05.011Z,31.20
2018-11-05T09:35:36.497Z,29.23
2018-11-05T09:38:05.304Z,28.27
2018-11-05T09:40:34.045Z,31.63
2018-11-05T09:43:04.719Z,28.03
2018-11-05T09:45:33.443Z,30.17
2018-11-05T09:48:02.704Z,30.40
2018-11-05T09:50:31.408Z,31.23
2018-11-05T09:53:00.198Z,30.13
2018-11-05T09:55:29.022Z,32.13
2018-11-05T09:57:57.758Z,31.47
2018-11-05T10:00:27.614Z,31.20
2018-11-05T10:03:01.829Z,31.73
2018-11-05T10:05:30.370Z,30.10
2018-11-05T10:07:59.610Z,30.47
2018-11-05T10:10:28.599Z,30.77
2018-11-05T10:12:57.230Z,29.53
2018-11-05T10:15:25.938Z,30.63
2018-11-05T10:17:54.593Z,31.50
2018-11-05T10:20:24.419Z,33.73
2018-11-05T10:22:53.159Z,30.57
2018-11-05T10:25:22.027Z,30.00
2018-11-05T10:27:51.487Z,30.50
2018-11-05T10:30:21.694Z,29.87
2018-11-05T10:32:50.520Z,31.43
2018-11-05T10:35:19.578Z,35.23
2018-11-05T10:37:48.401Z,32.53
2018-11-05T10:40:18.874Z,31.80
2018-11-05T10:42:47.895Z,31.03
2018-11-05T10:45:17.666Z,31.23
2018-11-05T10:47:46.400Z,33.77
2018-11-05T10:50:16.425Z,34.97
2018-11-05T10:52:46.708Z,31.07
2018-11-05T10:55:15.430Z,31.93
2018-11-05T10:57:44.369Z,31.80
2018-11-05T11:00:19.618Z,29.40
2018-11-05T11:02:53.482Z,30.00
2018-11-05T11:05:22.998Z,32.60
2018-11-05T11:07:52.571Z,32.33
2018-11-05T11:10:21.234Z,28.60
2018-11-05T11:12:49.991Z,32.07
2018-11-05T11:15:18.853Z,32.93
2018-11-05T11:17:47.445Z,29.07
2018-11-05T11:20:16.987Z,33.50
2018-11-05T11:22:45.692Z,31.53
2018-11-05T11:25:14.428Z,33.90
2018-11-05T11:27:43.152Z,34.53
2018-11-05T11:30:13.941Z,36.27
2018-11-05T11:32:43.238Z,38.00
2018-11-05T11:35:12.482Z,42.63
2018-11-05T11:37:42.271Z,37.87
2018-11-05T11:40:13.916Z,39.33
2018-11-05T11:42:43.439Z,41.47
2018-11-05T11:45:12.963Z,39.97
2018-11-05T11:47:41.680Z,40.80
2018-11-05T11:50:12.138Z,38.40
2018-11-05T11:52:40.753Z,42.97
2018-11-05T11:55:11.397Z,43.73
2018-11-05T11:57:40.489Z,46.23
2018-11-05T12:00:15.565Z,42.10
2018-11-05T12:02:44.559Z,43.90
2018-11-05T12:05:13.471Z,41.00
2018-11-05T12:07:42.177Z,39.93
2018-11-05T12:10:14.931Z,41.37
2018-11-05T12:12:43.920Z,44.97
2018-11-05T12:15:13.435Z,43.83
2018-11-05T12:17:42.809Z,43.03
2018-11-05T12:20:20.978Z,41.40
2018-11-05T12:22:50.222Z,44.60
2018-11-05T12:25:19.008Z,41.60
2018-11-05T12:27:47.800Z,44.50
2018-11-05T12:30:21.359Z,42.20
2018-11-05T12:32:50.772Z,41.20
2018-11-05T12:35:21.469Z,42.17
2018-11-05T12:37:51.313Z,46.10
2018-11-05T12:40:20.908Z,41.70
2018-11-05T12:42:50.503Z,39.87
2018-11-05T12:45:19.181Z,43.20
2018-11-05T12:47:47.965Z,41.30
2018-11-05T12:50:22.908Z,44.97
2018-11-05T12:52:52.943Z,43.90
2018-11-05T12:55:22.164Z,45.70
2018-11-05T12:57:50.854Z,42.90
2018-11-05T13:00:22.234Z,45.93
2018-11-05T13:02:55.984Z,42.87
2018-11-05T13:05:25.587Z,46.13
2018-11-05T13:07:54.362Z,44.43
2018-11-05T13:10:23.918Z,45.77
2018-11-05T13:12:52.888Z,49.13
2018-11-05T13:15:21.608Z,46.30
2018-11-05T13:17:50.204Z,46.13
2018-11-05T13:20:20.083Z,46.07
2018-11-05T13:22:48.861Z,46.60
2018-11-05T13:25:17.405Z,46.67
2018-11-05T13:27:47.417Z,45.47
2018-11-05T13:30:16.574Z,44.43
2018-11-05T13:32:45.395Z,44.00
2018-11-05T13:35:16.085Z,46.53
2018-11-05T13:37:45.116Z,46.77
2018-11-05T13:40:22.189Z,46.33
2018-11-05T13:42:51.361Z,48.30
2018-11-05T13:45:20.539Z,46.93
2018-11-05T13:47:49.932Z,52.27
2018-11-05T13:50:18.399Z,49.47
2018-11-05T13:52:46.776Z,51.03
2018-11-05T13:55:16.497Z,53.90
2018-11-05T13:57:46.496Z,53.93
2018-11-05T14:00:16.416Z,53.43
2018-11-05T14:02:45.319Z,53.63
2018-11-05T14:05:14.541Z,55.30
2018-11-05T14:07:44.456Z,52.87
2018-11-05T14:10:15.727Z,54.80
2018-11-05T14:12:45.551Z,57.97
2018-11-05T14:15:14.142Z,57.63
2018-11-05T14:17:43.563Z,58.13
2018-11-05T14:20:13.129Z,59.73
2018-11-05T14:22:42.176Z,57.63
2018-11-05T14:25:14.809Z,54.80
2018-11-05T14:27:45.343Z,64.23
2018-11-05T14:30:14.484Z,54.77
2018-11-05T14:32:44.259Z,55.23
2018-11-05T14:35:13.736Z,57.77
2018-11-05T14:37:42.540Z,59.73
2018-11-05T14:40:12.980Z,61.87
2018-11-05T14:42:41.588Z,59.43
2018-11-05T14:45:12.232Z,65.87
2018-11-05T14:47:41.795Z,67.73
2018-11-05T14:50:12.564Z,66.00
2018-11-05T14:52:41.310Z,68.73
2018-11-05T14:55:12.769Z,66.80
2018-11-05T14:57:42.725Z,69.10
2018-11-05T15:00:21.098Z,63.67
2018-11-05T15:02:50.441Z,62.10
2018-11-05T15:05:19.100Z,64.67
2018-11-05T15:07:48.739Z,61.80
2018-11-05T15:10:18.745Z,58.47
2018-11-05T15:12:47.508Z,61.10
2018-11-05T15:15:16.946Z,56.40
2018-11-05T15:17:46.060Z,56.27
2018-11-05T15:20:16.876Z,62.03
2018-11-05T15:22:45.188Z,54.57
2018-11-05T15:25:14.454Z,58.73
2018-11-05T15:27:43.223Z,56.53
2018-11-05T15:30:15.087Z,57.67
2018-11-05T15:32:44.101Z,56.03
2018-11-05T15:35:12.915Z,60.93
2018-11-05T15:37:42.213Z,51.30
2018-11-05T15:40:12.836Z,52.60
2018-11-05T15:42:41.748Z,56.97
2018-11-05T15:45:12.175Z,54.30
2018-11-05T15:47:41.375Z,52.03
2018-11-05T15:50:12.219Z,48.63
2018-11-05T15:52:41.254Z,53.83
2018-11-05T15:55:10.005Z,52.47
2018-11-05T15:57:39.233Z,51.30
2018-11-05T16:00:16.588Z,50.20
2018-11-05T16:02:46.791Z,49.70
2018-11-05T16:05:15.521Z,52.67
2018-11-05T16:07:44.364Z,50.70
2018-11-05T16:10:13.470Z,51.20
2018-11-05T16:12:42.434Z,50.83
2018-11-05T16:15:11.919Z,51.97
2018-11-05T16:17:41.525Z,54.00
2018-11-05T16:20:13.144Z,53.70
2018-11-05T16:22:41.957Z,51.23
2018-11-05T16:25:10.885Z,54.13
2018-11-05T16:27:39.734Z,49.80
2018-11-05T16:30:10.256Z,55.77
2018-11-05T16:32:39.088Z,50.70
2018-11-05T16:35:07.948Z,52.00
2018-11-05T16:37:36.855Z,50.00
2018-11-05T16:40:07.555Z,55.37
2018-11-05T16:42:36.812Z,50.40
2018-11-05T16:45:07.155Z,57.53
2018-11-05T16:47:36.270Z,63.40
2018-11-05T16:50:08.841Z,59.00
2018-11-05T16:52:37.706Z,54.07
2018-11-05T16:55:07.817Z,91.83
2018-11-05T16:57:36.862Z,99.60
2018-11-05T17:00:06.175Z,50.93
2018-11-05T17:02:35.074Z,48.93
2018-11-05T17:05:03.627Z,47.57
2018-11-05T17:07:32.381Z,51.67
2018-11-05T17:10:01.250Z,50.43
2018-11-05T17:12:29.975Z,51.43
2018-11-05T17:14:58.731Z,51.70
2018-11-05T17:17:27.398Z,50.57
2018-11-05T17:19:56.103Z,50.10
2018-11-05T17:22:24.753Z,55.70
2018-11-05T17:24:53.581Z,50.67
2018-11-05T17:27:22.196Z,51.70
2018-11-05T17:29:50.824Z,52.23
2018-11-05T17:32:19.684Z,51.60
2018-11-05T17:34:48.353Z,48.97
2018-11-05T17:37:17.530Z,53.40
2018-11-05T17:39:46.124Z,49.10
2018-11-05T17:42:14.771Z,53.50
2018-11-05T17:44:43.393Z,52.97
2018-11-05T17:47:12.817Z,49.17
2018-11-05T17:49:41.480Z,48.10
2018-11-05T17:52:10.067Z,50.50
2018-11-05T17:54:38.905Z,49.07
2018-11-05T17:57:07.647Z,46.13
2018-11-05T17:59:36.338Z,45.13
2018-11-05T18:02:05.195Z,51.80
2018-11-05T18:04:33.937Z,47.40
2018-11-05T18:07:02.589Z,45.93
2018-11-05T18:09:31.278Z,43.70
2018-11-05T18:11:59.967Z,44.67
2018-11-05T18:14:28.668Z,46.20
2018-11-05T18:16:57.783Z,42.23
2018-11-05T18:19:26.404Z,47.40
2018-11-05T18:21:55.032Z,47.13
2018-11-05T18:24:23.813Z,44.23
2018-11-05T18:26:52.574Z,44.37
2018-11-05T18:29:21.261Z,48.30
2018-11-05T18:31:49.869Z,43.53
2018-11-05T18:34:18.869Z,41.93
2018-11-05T18:36:47.743Z,41.10
2018-11-05T18:39:16.354Z,40.63
2018-11-05T18:41:45.211Z,40.70
2018-11-05T18:44:14.096Z,42.77
2018-11-05T18:46:43.145Z,40.43
2018-11-05T18:49:11.727Z,40.63
2018-11-05T18:51:40.494Z,45.53
2018-11-05T18:54:09.159Z,42.37
2018-11-05T18:56:37.959Z,41.80
2018-11-05T18:59:07.025Z,42.23
2018-11-05T19:01:35.848Z,44.23
2018-11-05T19:04:04.694Z,42.73
2018-11-05T19:06:33.537Z,46.70
2018-11-05T19:09:02.457Z,40.70
2018-11-05T19:11:31.240Z,42.20
2018-11-05T19:14:00.122Z,42.37
2018-11-05T19:16:29.248Z,43.90
2018-11-05T19:19:01.388Z,38.83
2018-11-05T19:21:32.513Z,45.70
2018-11-05T19:24:04.467Z,44.80
2018-11-05T19:26:39.069Z,44.83
2018-11-05T19:29:10.105Z,43.83
2018-11-05T19:31:40.129Z,41.73
2018-11-05T19:34:11.172Z,39.63
2018-11-05T19:50:23.738Z,37.17
2018-11-05T19:52:56.956Z,39.40
2018-11-05T19:55:27.502Z,44.03
2018-11-05T19:58:01.157Z,37.87
2018-11-05T20:00:32.701Z,38.83
2018-11-05T20:03:02.629Z,38.37
2018-11-05T20:05:43.734Z,41.83
2018-11-05T20:08:15.685Z,40.77
2018-11-05T20:10:45.901Z,40.17
2018-11-05T20:13:16.297Z,41.93
2018-11-05T20:15:45.040Z,37.53
2018-11-05T20:18:18.217Z,37.33
2018-11-05T20:20:47.368Z,37.07
2018-11-05T20:23:18.560Z,38.40
2018-11-05T20:25:50.909Z,37.47
2018-11-05T20:28:21.859Z,36.50
2018-11-05T20:30:54.074Z,36.70
2018-11-05T20:33:24.100Z,38.03
2018-11-05T20:35:55.935Z,38.57
2018-11-05T20:38:25.876Z,38.57
2018-11-05T20:41:04.066Z,38.23
2018-11-05T20:43:36.257Z,38.00
2018-11-05T20:46:07.990Z,42.13
2018-11-05T20:48:36.805Z,39.60
2018-11-05T20:51:09.463Z,43.70
2018-11-05T20:53:38.304Z,38.47
2018-11-05T20:56:09.732Z,39.77
2018-11-05T20:58:41.597Z,40.10
2018-11-05T21:01:13.731Z,41.27
2018-11-05T21:03:45.241Z,41.87
2018-11-05T21:06:15.799Z,40.80
2018-11-05T21:08:47.702Z,42.90
2018-11-05T21:11:19.060Z,43.40
2018-11-05T21:13:48.858Z,42.60
2018-11-05T21:16:20.494Z,44.87
2018-11-05T21:18:52.183Z,41.83
2018-11-05T21:21:24.432Z,40.23
2018-11-05T21:23:53.217Z,39.27
2018-11-05T21:26:24.022Z,36.93
2018-11-05T21:28:54.331Z,40.03
2018-11-05T21:31:29.527Z,43.17
2018-11-05T21:36:35.609Z,41.53
2018-11-05T21:39:06.519Z,39.63
2018-11-05T21:41:39.369Z,41.60
2018-11-05T21:44:13.191Z,40.20
2018-11-05T21:46:43.409Z,42.27
2018-11-05T21:49:15.795Z,38.97
2018-11-05T21:51:44.613Z,38.43
2018-11-05T21:54:15.571Z,41.80
2018-11-05T21:56:46.888Z,41.77
2018-11-05T21:59:18.776Z,37.87
2018-11-05T22:01:48.270Z,40.60
2018-11-05T22:04:19.640Z,39.03
2018-11-05T22:06:51.071Z,42.43
2018-11-05T22:09:22.848Z,36.80
2018-11-05T22:11:53.790Z,41.53
2018-11-05T22:14:32.021Z,39.97
2018-11-05T22:17:02.903Z,40.30
2018-11-05T22:19:33.097Z,42.03
2018-11-05T22:22:02.467Z,40.77
2018-11-05T22:24:31.739Z,41.27
2018-11-05T22:27:02.472Z,40.83
2018-11-05T22:29:33.007Z,39.93
2018-11-05T22:32:02.810Z,39.17
2018-11-05T22:34:32.486Z,41.33
2018-11-05T22:37:02.143Z,38.30
2018-11-05T22:39:31.538Z,36.83
2018-11-05T22:42:01.432Z,37.77
2018-11-05T22:44:30.854Z,43.13
2018-11-05T22:47:02.620Z,41.80
2018-11-05T22:49:31.425Z,42.80
2018-11-05T22:52:01.482Z,41.60
2018-11-05T22:54:30.714Z,40.73
2018-11-05T22:56:59.803Z,38.57
2018-11-05T22:59:35.872Z,39.87
2018-11-05T23:02:06.536Z,38.37
2018-11-05T23:04:35.479Z,39.50
2018-11-05T23:07:04.832Z,39.73
2018-11-05T23:09:34.062Z,37.03
2018-11-05T23:12:03.509Z,36.40
2018-11-05T23:14:32.202Z,42.47
2018-11-05T23:17:02.268Z,37.13
2018-11-05T23:19:31.030Z,36.87
2018-11-05T23:21:59.776Z,41.43
2018-11-05T23:24:29.345Z,40.23
2018-11-05T23:26:58.779Z,41.03
2018-11-05T23:29:27.679Z,41.27
2018-11-05T23:31:56.418Z,38.00
2018-11-05T23:34:25.530Z,39.23
2018-11-05T23:36:54.906Z,38.03
2018-11-05T23:39:25.180Z,39.10
2018-11-05T23:41:55.165Z,37.77
2018-11-05T23:44:25.132Z,43.27
2018-11-05T23:46:55.204Z,42.47
2018-11-05T23:49:23.952Z,39.77
2018-11-05T23:51:52.859Z,40.43
2018-11-05T23:54:21.411Z,40.00
2018-11-05T23:56:50.102Z,41.60
2018-11-05T23:59:18.931Z,39.57
